Data for 04/30/2005

Time Sea-Level Adjusted Pressure Absolute Pressure Temperature Relative Humidity Dew Point   
(mb) (inHg) (mb) (inHg) (C) (F) (%) (C) (F)
00:05 1019 30.09 849 25.07 -1 30.3 60 -7.7 18.2
00:10 1019 30.09 849 25.07 -0.8 30.6 61 -7.4 18.6
00:15 1019 30.09 849 25.07 -0.8 30.6 61 -7.4 18.7
00:20 1019 30.09 849 25.07 -0.7 30.7 61 -7.4 18.7
00:25 1019 30.09 849 25.07 -0.7 30.8 58 -7.9 17.9
00:30 1019 30.09 849 25.07 -0.7 30.8 59 -7.7 18.2
00:35 1019 30.09 849 25.07 -0.7 30.7 59 -7.7 18.2
00:40 1019 30.09 849 25.07 -0.7 30.7 60 -7.6 18.3
00:45 1019 30.09 849 25.07 -0.5 31.1 57 -8 17.7
00:50 1019 30.09 849 25.07 -0.4 31.2 58 -7.8 17.9
00:55 1019 30.09 849 25.07 -0.5 31.2 57 -8 17.5
01:00 1020 30.12 849 25.07 -0.5 31 58 -7.7 18.1
01:05 1020 30.12 849 25.07 -0.7 30.8 60 -7.6 18.4
01:10 1020 30.12 849 25.07 -0.8 30.6 59 -7.9 17.7
01:15 1020 30.12 849 25.07 -0.8 30.6 58 -8.1 17.4
01:20 1020 30.12 849 25.07 -0.9 30.5 59 -7.9 17.8
01:25 1020 30.12 849 25.07 -0.9 30.4 61 -7.5 18.5
01:30 1020 30.12 849 25.07 -1 30.2 60 -7.9 17.8
01:35 1020 30.12 849 25.07 -1.2 29.8 61 -7.8 18
01:40 1020 30.12 849 25.07 -1.4 29.4 62 -7.7 18.1
01:45 1020 30.12 849 25.07 -1.5 29.3 62 -7.8 17.9
01:50 1020 30.12 849 25.07 -1.6 29.2 63 -7.8 18
01:55 1020 30.12 849 25.07 -1.6 29.2 64 -7.4 18.7
02:00 1020 30.12 849 25.07 -1.7 29 67 -7 19.4
02:05 1020 30.12 849 25.07 -1.8 28.7 65 -7.5 18.6
02:10 1020 30.12 849 25.07 -1.7 28.9 66 -7.3 18.9
02:15 1020 30.12 849 25.07 -1.8 28.8 66 -7.2 19
02:20 1020 30.12 849 25.07 -2 28.4 68 -7.1 19.2
02:25 1020 30.12 849 25.07 -2.2 28 70 -7 19.4
02:30 1020 30.12 849 25.07 -2.6 27.3 71 -7.1 19.2
02:35 1020 30.12 849 25.07 -2.7 27.1 72 -7.1 19.2
02:40 1020 30.12 849 25.07 -2.8 26.9 73 -7.1 19.2
02:45 1020 30.12 849 25.07 -2.9 26.8 73 -7 19.3
02:50 1020 30.12 849 25.07 -3.1 26.4 73 -7.2 19
02:55 1020 30.12 849 25.07 -3.1 26.4 73 -7.3 18.8
03:00 1020 30.12 849 25.07 -3.1 26.4 72 -7.4 18.6
03:05 1020 30.12 849 25.07 -2.9 26.7 71 -7.5 18.5
03:10 1020 30.12 849 25.07 -3 26.7 71 -7.5 18.4
03:15 1020 30.12 849 25.07 -2.9 26.7 71 -7.5 18.5
03:20 1020 30.12 849 25.07 -3 26.6 72 -7.5 18.6
03:25 1020 30.12 849 25.07 -3.2 26.3 72 -7.6 18.4
03:30 1020 30.12 849 25.07 -3.2 26.2 72 -7.6 18.3
03:35 1020 30.12 849 25.07 -3.3 26.1 71 -7.7 18.1
03:40 1020 30.12 849 25.07 -3.2 26.3 71 -7.6 18.2
03:45 1020 30.12 850 25.1 -3.2 26.2 72 -7.5 18.5
03:50 1020 30.12 850 25.1 -3.3 26 73 -7.6 18.4
03:55 1020 30.12 850 25.1 -3.4 25.8 73 -7.6 18.3
04:00 1020 30.12 850 25.1 -3.4 25.9 73 -7.5 18.5
04:05 1020 30.12 850 25.1 -3.4 26 72 -7.7 18.2
04:10 1021 30.15 850 25.1 -3.2 26.2 71 -7.8 17.9
04:15 1021 30.15 850 25.1 -3.2 26.3 71 -7.8 18
04:20 1021 30.15 850 25.1 -3 26.5 71 -7.7 18.2
04:25 1021 30.15 850 25.1 -3.1 26.5 71 -7.7 18.2
04:30 1021 30.15 850 25.1 -3 26.6 70 -7.6 18.2
04:35 1021 30.15 850 25.1 -3 26.7 69 -7.8 17.9
04:40 1021 30.15 850 25.1 -3 26.6 70 -7.8 18
04:45 1021 30.15 850 25.1 -3.1 26.4 71 -7.7 18.1
04:50 1021 30.15 850 25.1 -3.3 26.1 71 -7.8 18
04:55 1021 30.15 850 25.1 -3.4 25.8 72 -7.8 17.9
05:00 1021 30.15 850 25.1 -3.6 25.6 73 -7.8 18
05:05 1021 30.15 850 25.1 -3.9 25 74 -7.9 17.8
05:10 1021 30.15 850 25.1 -3.9 24.9 75 -7.7 18.1
05:15 1021 30.15 850 25.1 -4 24.7 75 -7.8 18
05:20 1021 30.15 850 25.1 -3.9 24.9 75 -7.8 17.9
05:25 1021 30.15 850 25.1 -3.9 25 75 -7.8 18
05:30 1021 30.15 850 25.1 -4 24.9 73 -8.2 17.3
05:35 1021 30.15 851 25.13 -3.7 25.4 72 -8.1 17.5
05:40 1021 30.15 851 25.13 -3.6 25.5 71 -8.2 17.3
05:45 1021 30.15 851 25.13 -3.3 26.1 69 -8.2 17.2
05:50 1021 30.15 851 25.13 -3.2 26.2 69 -8.1 17.5
05:55 1021 30.15 851 25.13 -3.2 26.2 71 -7.7 18.1
06:00 1021 30.15 851 25.13 -3.6 25.6 72 -7.9 17.8
06:05 1021 30.15 851 25.13 -3.8 25.1 73 -8 17.6
06:10 1022 30.18 851 25.13 -3.8 25.2 73 -8 17.6
06:15 1022 30.18 851 25.13 -3.5 25.6 71 -8 17.6
06:20 1022 30.18 851 25.13 -3.3 26 72 -7.8 18
06:25 1022 30.18 851 25.13 -3.2 26.2 73 -7.5 18.6
06:30 1022 30.18 851 25.13 -3.3 26 74 -7.3 18.8
06:35 1022 30.18 851 25.13 -3.2 26.3 73 -7.4 18.7
06:40 1022 30.18 851 25.13 -3 26.6 72 -7.3 18.9
06:45 1022 30.18 851 25.13 -3.1 26.4 74 -7.2 19.1
06:50 1022 30.18 851 25.13 -3.1 26.5 73 -7.3 18.9
06:55 1022 30.18 851 25.13 -2.9 26.7 73 -7 19.3
07:00 1022 30.18 851 25.13 -2.9 26.8 73 -7.1 19.2
07:05 1022 30.18 851 25.13 -2.7 27.1 73 -7 19.4
07:10 1022 30.18 851 25.13 -2.7 27.1 73 -6.9 19.6
07:15 1022 30.18 851 25.13 -2.5 27.4 71 -7.1 19.2
07:20 1022 30.18 851 25.13 -2.5 27.4 71 -7.1 19.3
07:25 1022 30.18 851 25.13 -2.4 27.8 71 -7 19.4
07:30 1022 30.18 852 25.16 -2.1 28.2 69 -7 19.4
07:35 1022 30.18 852 25.16 -2 28.4 69 -6.9 19.6
07:40 1023 30.21 852 25.16 -2 28.5 69 -7 19.4
07:45 1023 30.21 852 25.16 -1.6 29.1 67 -6.9 19.5
07:50 1023 30.21 852 25.16 -1.6 29.1 68 -6.7 19.9
07:55 1023 30.21 852 25.16 -1.3 29.6 65 -7 19.4
08:00 1023 30.21 852 25.16 -1.2 29.9 62 -7.6 18.2
08:05 1023 30.21 852 25.16 -1.2 29.9 64 -7.2 19.1
08:10 1023 30.21 852 25.16 -1.3 29.7 63 -7.5 18.5
08:15 1023 30.21 852 25.16 -1.2 29.8 62 -7.6 18.3
08:20 1023 30.21 852 25.16 -1.3 29.7 63 -7.4 18.6
08:25 1023 30.21 852 25.16 -1.6 29.1 67 -7 19.5
08:30 1023 30.21 852 25.16 -1.5 29.3 63 -7.7 18.1
08:35 1023 30.21 852 25.16 -1.4 29.5 63 -7.6 18.3
08:40 1023 30.21 852 25.16 -1.3 29.6 66 -7 19.4
08:45 1023 30.21 852 25.16 -1 30.1 64 -7 19.4
08:50 1023 30.21 853 25.19 -1 30.1 64 -7 19.4
08:55 1023 30.21 853 25.19 -0.4 31.3 60 -7.2 19
09:00 1023 30.21 853 25.19 -0.4 31.2 61 -7.1 19.1
09:05 1023 30.21 853 25.19 -1 30.2 63 -7.3 18.9
09:10 1023 30.21 853 25.19 -1.2 29.9 63 -7.3 18.9
09:15 1023 30.21 853 25.19 -0.8 30.6 66 -6.4 20.4
09:20 1023 30.21 853 25.19 -0.5 31 63 -6.8 19.8
09:25 1023 30.21 853 25.19 -0.3 31.5 61 -6.9 19.5
09:30 1024 30.24 853 25.19 -0 32 59 -7 19.3
09:35 1024 30.24 853 25.19 0.3 32.6 58 -7 19.4
09:40 1024 30.24 853 25.19 0.5 33 56 -7.1 19.2
09:45 1024 30.24 853 25.19 0.9 33.6 56 -7 19.4
09:50 1024 30.24 853 25.19 1.2 34.2 56 -6.6 20.1
09:55 1024 30.24 853 25.19 1.8 35.2 52 -7.2 19.1
10:00 1024 30.24 853 25.19 1.6 34.9 53 -6.9 19.6
10:05 1023 30.21 853 25.19 0.9 33.6 56 -7 19.3
10:10 1024 30.24 853 25.19 0.9 33.6 53 -7.6 18.3
10:15 1024 30.24 853 25.19 0.7 33.3 56 -7.2 19
10:20 1024 30.24 853 25.19 0.7 33.3 54 -7.5 18.6
10:25 1024 30.24 853 25.19 0.8 33.5 54 -7.4 18.7
10:30 1024 30.24 853 25.19 1 33.8 54 -7.2 19
10:35 1024 30.24 853 25.19 1.1 33.9 54 -7.2 19.1
10:40 1024 30.24 853 25.19 1.3 34.3 53 -7.3 18.8
10:45 1024 30.24 853 25.19 1.6 34.9 52 -7.2 19
10:50 1024 30.24 853 25.19 1.6 34.9 50 -7.8 17.9
10:55 1024 30.24 853 25.19 1.9 35.5 48 -7.9 17.7
11:00 1024 30.24 853 25.19 2.5 36.5 46 -7.9 17.8
11:05 1024 30.24 853 25.19 2.6 36.8 47 -7.7 18.2
11:10 1024 30.24 853 25.19 2.2 36 49 -7.5 18.5
11:15 1024 30.24 853 25.19 2.4 36.2 45 -8.3 17
11:20 1024 30.24 853 25.19 2.7 36.8 45 -8.1 17.4
11:25 1024 30.24 853 25.19 2.7 36.9 45 -8.2 17.3
11:30 1024 30.24 853 25.19 2.5 36.5 46 -7.9 17.8
11:35 1024 30.24 853 25.19 2.1 35.8 48 -7.8 18
11:40 1024 30.24 853 25.19 2.1 35.7 47 -8.2 17.3
11:45 1024 30.24 853 25.19 2.3 36.1 47 -7.8 18
11:50 1024 30.24 853 25.19 2.4 36.3 46 -8.1 17.3
11:55 1024 30.24 853 25.19 3.1 37.6 44 -8.1 17.5
12:00 1024 30.24 853 25.19 3.2 37.8 46 -7.4 18.6
12:05 1024 30.24 853 25.19 3.6 38.4 44 -7.6 18.4
12:10 1024 30.24 853 25.19 3.8 38.8 44 -7.4 18.7
12:15 1024 30.24 853 25.19 3.9 39.1 44 -7.1 19.2
12:20 1024 30.24 853 25.19 3.5 38.3 45 -7.3 18.9
12:25 1024 30.24 853 25.19 3.3 37.9 46 -7.4 18.7
12:30 1024 30.24 853 25.19 3 37.3 47 -7.4 18.7
12:35 1024 30.24 853 25.19 2.7 36.8 48 -7.3 18.8
12:40 1024 30.24 853 25.19 2.8 37 48 -7.2 19
12:45 1024 30.24 853 25.19 2.5 36.5 47 -7.7 18.1
12:50 1024 30.24 853 25.19 3.6 38.5 43 -7.9 17.7
12:55 1024 30.24 853 25.19 4.9 40.8 42 -7.1 19.3
13:00 1023 30.21 853 25.19 4.7 40.5 41 -7.3 18.8
13:05 1024 30.24 853 25.19 5.1 41.1 41 -7.2 19
13:10 1024 30.24 853 25.19 4.8 40.6 41 -7.4 18.7
13:15 1024 30.24 853 25.19 5.8 42.5 40 -6.7 20
13:20 1024 30.24 853 25.19 4.6 40.2 44 -6.6 20.1
13:25 1024 30.24 853 25.19 4.3 39.7 43 -7.2 19
13:30 1024 30.24 853 25.19 4.3 39.7 44 -7 19.5
13:35 1024 30.24 853 25.19 4.4 40 42 -7.3 18.9
13:40 1024 30.24 853 25.19 4.5 40.1 42 -7.3 18.8
13:45 1024 30.24 853 25.19 3.5 38.4 44 -7.5 18.5
13:50 1024 30.24 853 25.19 3.9 38.9 42 -7.8 17.9
13:55 1024 30.24 853 25.19 4.8 40.6 41 -7.4 18.7
14:00 1024 30.24 853 25.19 4.9 40.8 42 -7 19.5
14:05 1024 30.24 853 25.19 5 41.1 41 -7.2 19.1
14:10 1024 30.24 853 25.19 5.5 41.8 37 -8.1 17.4
14:15 1024 30.24 853 25.19 5.8 42.5 35 -8.6 16.6
14:20 1024 30.24 853 25.19 6.3 43.4 36 -7.8 17.9
14:25 1024 30.24 853 25.19 6 42.8 34 -8.6 16.5
14:30 1024 30.24 853 25.19 5.6 42.1 37 -8 17.5
14:35 1024 30.24 853 25.19 5.6 42.1 35 -8.8 16.1
14:40 1024 30.24 853 25.19 5.5 42 35 -8.8 16.2
14:45 1024 30.24 853 25.19 5.8 42.4 35 -8.6 16.6
14:50 1024 30.24 853 25.19 5.9 42.7 34 -8.9 16.1
14:55 1024 30.24 853 25.19 5.9 42.6 35 -8.3 17.1
15:00 1024 30.24 853 25.19 5.8 42.5 35 -8.5 16.7
15:05 1024 30.24 853 25.19 6.1 43.1 34 -8.4 16.8
15:10 1024 30.24 853 25.19 6.4 43.5 33 -8.9 15.9
15:15 1024 30.24 853 25.19 6.8 44.3 32 -8.9 16.1
15:20 1024 30.24 853 25.19 6.3 43.4 34 -8.5 16.6
15:25 1024 30.24 853 25.19 5.5 41.9 35 -8.9 16.1
15:30 1024 30.24 853 25.19 6.3 43.3 34 -8.6 16.5
15:35 1024 30.24 853 25.19 5.6 42.1 36 -8.4 16.9
15:40 1023 30.21 853 25.19 4.7 40.5 36 -9.2 15.5
15:45 1023 30.21 853 25.19 4.6 40.2 37 -8.8 16.1
15:50 1023 30.21 853 25.19 4.9 40.9 38 -8.3 17.1
15:55 1023 30.21 853 25.19 5.3 41.5 34 -9.2 15.4
16:00 1023 30.21 853 25.19 6.4 43.5 33 -8.6 16.4
16:05 1023 30.21 853 25.19 7.2 44.9 33 -7.9 17.8
16:10 1023 30.21 853 25.19 6.9 44.4 33 -8.5 16.7
16:15 1023 30.21 853 25.19 6.2 43.2 34 -8.5 16.7
16:20 1023 30.21 853 25.19 6.4 43.5 34 -8.3 17.1
16:25 1023 30.21 853 25.19 6.7 44.1 32 -8.8 16.2
16:30 1023 30.21 853 25.19 7.5 45.4 32 -8.1 17.4
16:35 1023 30.21 853 25.19 7.8 46.1 31 -8.4 16.8
16:40 1023 30.21 853 25.19 6.5 43.8 34 -8.3 17.1
16:45 1023 30.21 852 25.16 7 44.6 32 -8.6 16.4
16:50 1023 30.21 852 25.16 7.8 46.1 30 -8.6 16.6
16:55 1023 30.21 852 25.16 8.3 47 29 -8.7 16.3
17:00 1023 30.21 852 25.16 7.9 46.2 32 -7.9 17.8
17:05 1023 30.21 852 25.16 8.3 47 29 -8.8 16.2
17:10 1023 30.21 852 25.16 8.7 47.6 31 -7.6 18.4
17:15 1023 30.21 852 25.16 8.5 47.2 31 -7.9 17.8
17:20 1023 30.21 852 25.16 8.4 47.2 29 -8.7 16.3
17:25 1023 30.21 852 25.16 8.5 47.3 30 -8.3 17
17:30 1023 30.21 852 25.16 6.8 44.3 33 -8.3 17.1
17:35 1023 30.21 852 25.16 7.3 45.2 29 -9.4 15
17:40 1023 30.21 852 25.16 7.9 46.2 30 -8.6 16.4
17:45 1023 30.21 852 25.16 6.5 43.7 33 -8.5 16.6
17:50 1023 30.21 852 25.16 5.8 42.5 34 -9 15.8
17:55 1023 30.21 852 25.16 6.1 42.9 32 -9.3 15.2
18:00 1023 30.21 852 25.16 6 42.7 33 -9.1 15.6
18:05 1023 30.21 852 25.16 5.6 42.1 33 -9.3 15.3
18:10 1023 30.21 852 25.16 5.8 42.5 32 -9.6 14.8
18:15 1023 30.21 852 25.16 6.1 43.1 32 -9.4 15
18:20 1023 30.21 852 25.16 5.7 42.2 32 -9.7 14.6
18:25 1023 30.21 852 25.16 6 42.8 31 -9.9 14.2
18:30 1023 30.21 852 25.16 5.9 42.7 31 -9.8 14.3
18:35 1023 30.21 852 25.16 5.6 42 32 -10 14.1
18:40 1023 30.21 852 25.16 5.9 42.6 31 -10 14.1
18:45 1023 30.21 852 25.16 6.1 42.9 32 -9.6 14.7
18:50 1023 30.21 852 25.16 5.8 42.5 33 -9.4 15.1
18:55 1023 30.21 852 25.16 5.6 42.1 31 -10.3 13.5
19:00 1023 30.21 852 25.16 6 42.8 28 -11.1 12.1
19:05 1023 30.21 852 25.16 5.6 42 29 -11.3 11.6
19:10 1023 30.21 852 25.16 5.1 41.2 29 -11.6 11.2
19:15 1023 30.21 852 25.16 5.4 41.7 28 -11.6 11.1
19:20 1023 30.21 852 25.16 5.7 42.2 29 -11.1 12
19:25 1023 30.21 852 25.16 5.3 41.6 31 -10.7 12.8
19:30 1023 30.21 852 25.16 5.3 41.5 31 -10.7 12.8
19:35 1023 30.21 852 25.16 5.6 42 31 -10.5 13.2
19:40 1023 30.21 852 25.16 5.3 41.6 30 -10.9 12.4
19:45 1023 30.21 852 25.16 5.1 41.2 30 -11 12.1
19:50 1023 30.21 852 25.16 5.2 41.3 30 -10.9 12.3
19:55 1023 30.21 852 25.16 4.8 40.6 31 -11.1 12.1
20:00 1023 30.21 852 25.16 4.5 40.2 31 -11.2 11.8
20:05 1023 30.21 852 25.16 4.6 40.2 31 -11.2 11.8
20:10 1023 30.21 852 25.16 4.7 40.5 31 -10.9 12.4
20:15 1023 30.21 852 25.16 4.9 40.8 31 -11 12.3
20:20 1023 30.21 852 25.16 4.8 40.7 31 -10.8 12.5
20:25 1023 30.21 852 25.16 4.4 39.8 32 -11.1 12
20:30 1023 30.21 852 25.16 4 39.3 32 -11.1 11.9
20:35 1023 30.21 852 25.16 4 39.2 33 -11 12.2
20:40 1023 30.21 852 25.16 4 39.1 33 -10.9 12.3
20:45 1023 30.21 852 25.16 3.5 38.2 41 -8.4 16.8
20:50 1023 30.21 852 25.16 2.8 37.1 44 -8.2 17.2
20:55 1023 30.21 852 25.16 2.7 36.8 45 -8.1 17.4
21:00 1023 30.21 853 25.19 2.4 36.4 46 -8 17.7
21:05 1023 30.21 853 25.19 2.3 36.1 47 -8 17.6
21:10 1023 30.21 853 25.19 2.2 36 47 -7.9 17.7
21:15 1023 30.21 853 25.19 2.1 35.8 47 -8 17.6
21:20 1024 30.24 853 25.19 2.1 35.7 47 -8 17.6
21:25 1024 30.24 853 25.19 2 35.5 48 -8 17.6
21:30 1024 30.24 853 25.19 1.8 35.3 49 -7.7 18.1
21:35 1024 30.24 853 25.19 1.6 34.9 50 -7.8 18
21:40 1024 30.24 853 25.19 1.5 34.7 50 -7.8 18
21:45 1024 30.24 853 25.19 1.4 34.5 50 -7.8 18
21:50 1024 30.24 853 25.19 1.3 34.3 51 -7.9 17.8
21:55 1024 30.24 853 25.19 1.2 34.1 51 -7.9 17.8
22:00 1024 30.24 853 25.19 1 33.9 52 -7.8 17.9
22:05 1024 30.24 853 25.19 0.9 33.6 52 -7.9 17.9
22:10 1024 30.24 853 25.19 0.8 33.4 52 -8 17.7
22:15 1024 30.24 853 25.19 0.8 33.4 52 -8 17.6
22:20 1024 30.24 853 25.19 0.7 33.2 52 -8 17.6
22:25 1024 30.24 853 25.19 0.5 32.9 54 -7.9 17.9
22:30 1024 30.24 853 25.19 0.3 32.6 54 -7.8 17.9
22:35 1024 30.24 853 25.19 0.2 32.4 55 -7.9 17.8
22:40 1024 30.24 853 25.19 0.2 32.3 55 -7.9 17.8
22:45 1024 30.24 853 25.19 0 32 55 -8 17.6
22:50 1024 30.24 853 25.19 -0 32 55 -8.1 17.4
22:55 1024 30.24 853 25.19 0 32.1 54 -8.3 17.1
23:00 1024 30.24 853 25.19 0.1 32.2 53 -8.3 17
23:05 1024 30.24 853 25.19 0.1 32.2 53 -8.3 17.1
23:10 1024 30.24 853 25.19 0 32 54 -8.3 17.1
23:15 1024 30.24 853 25.19 -0.1 31.9 54 -8.3 17.1
23:20 1024 30.24 853 25.19 -0.2 31.6 54 -8.3 17
23:25 1024 30.24 853 25.19 -0.2 31.6 54 -8.4 16.9
23:30 1024 30.24 853 25.19 -0.3 31.4 55 -8.3 17
23:35 1024 30.24 853 25.19 -0.4 31.3 55 -8.4 16.8
23:40 1024 30.24 853 25.19 -0.4 31.3 55 -8.3 17.1
23:45 1024 30.24 853 25.19 -0.5 31 56 -8.3 17.1
23:50 1024 30.24 853 25.19 -0.5 31.2 55 -8.4 16.8
23:55 1024 30.24 853 25.19 -0.5 31.1 56 -8.3 17
24:00 1024 30.24 853 25.19 -0.5 31.1 56 -8.3 17